Terminal Aerodrome Forecast
Issued by NWS Amarillo, TX

Home | Current Version | Previous Version | Text Only | Print | Product List | Glossary On
Versions: 1 2 3 4 5 6 7 8 9 10 11 12 13 14 15 16 17 18 19
000
FTUS44 KAMA 050700 AAA
TAFAMA
TAF AMD
KAMA 050758Z 0508/0606 19011KT 6SM -RA OVC070
     FM050900 16012KT 5SM -RA SCT015 OVC060
     FM051000 14013KT 6SM SHRA BKN090
     FM051800 15023G34KT 5SM SHRA OVC012
     FM060200 15015G23KT P6SM OVC008=

USA.gov is the U.S. government's official web portal to all federal, state and local government web resources and services.